createdAt,value
2022-12-15T00:00:50.274Z,-4.30
2022-12-15T00:01:50.937Z,-4.32
2022-12-15T00:02:52.126Z,-4.35
2022-12-15T00:03:52.383Z,-4.38
2022-12-15T00:04:53.046Z,-4.40
2022-12-15T00:05:53.755Z,-4.43
2022-12-15T00:06:54.550Z,-4.46
2022-12-15T00:07:55.506Z,-4.46
2022-12-15T00:08:56.213Z,-4.42
2022-12-15T00:09:56.927Z,-4.39
2022-12-15T00:10:57.632Z,-4.38
2022-12-15T00:11:58.337Z,-4.40
2022-12-15T00:12:59.092Z,-4.36
2022-12-15T00:13:59.760Z,-4.35
2022-12-15T00:15:00.470Z,-4.32
2022-12-15T00:16:01.282Z,-4.33
2022-12-15T00:17:02.002Z,-4.36
2022-12-15T00:18:02.721Z,-4.36
2022-12-15T00:19:03.425Z,-4.35
2022-12-15T00:20:04.134Z,-4.32
2022-12-15T00:21:04.845Z,-4.32
2022-12-15T00:22:05.553Z,-4.32
2022-12-15T00:23:06.270Z,-4.35
2022-12-15T00:24:06.976Z,-4.32
2022-12-15T00:25:07.684Z,-4.29
2022-12-15T00:26:08.393Z,-4.29
2022-12-15T00:27:09.114Z,-4.32
2022-12-15T00:28:09.837Z,-4.30
2022-12-15T00:29:10.513Z,-4.32
2022-12-15T00:30:11.217Z,-4.32
2022-12-15T00:31:11.984Z,-4.30
2022-12-15T00:32:12.631Z,-4.32
2022-12-15T00:33:13.348Z,-4.30
2022-12-15T00:34:14.058Z,-4.32
2022-12-15T00:35:14.764Z,-4.33
2022-12-15T00:36:15.470Z,-4.36
2022-12-15T00:37:16.180Z,-4.38
2022-12-15T00:38:16.896Z,-4.40
2022-12-15T00:39:17.607Z,-4.42
2022-12-15T00:40:18.316Z,-4.46
2022-12-15T00:41:19.023Z,-4.46
2022-12-15T00:42:19.731Z,-4.43
2022-12-15T00:43:20.468Z,-4.47
2022-12-15T00:44:21.153Z,-4.47
2022-12-15T00:45:21.860Z,-4.51
2022-12-15T00:46:22.680Z,-4.51
2022-12-15T00:47:23.373Z,-4.54
2022-12-15T00:48:24.089Z,-4.50
2022-12-15T00:49:24.797Z,-4.50
2022-12-15T00:50:25.507Z,-4.53
2022-12-15T00:51:26.215Z,-4.53
2022-12-15T00:52:26.925Z,-4.51
2022-12-15T00:53:28.245Z,-4.51
2022-12-15T00:54:28.546Z,-4.50
2022-12-15T00:55:29.259Z,-4.47
2022-12-15T00:56:29.967Z,-4.49
2022-12-15T00:57:30.679Z,-4.49
2022-12-15T00:58:31.421Z,-4.49
2022-12-15T00:59:32.094Z,-4.47
2022-12-15T01:00:32.798Z,-4.46
2022-12-15T01:01:33.682Z,-4.46
2022-12-15T01:02:34.520Z,-4.46
2022-12-15T01:03:35.901Z,-4.43
2022-12-15T01:04:35.973Z,-4.42
2022-12-15T01:05:36.679Z,-4.42
2022-12-15T01:06:37.390Z,-4.42
2022-12-15T01:07:38.098Z,-4.43
2022-12-15T01:08:39.000Z,-4.46
2022-12-15T01:09:39.709Z,-4.49
2022-12-15T01:10:40.421Z,-4.49
2022-12-15T01:11:41.125Z,-4.49
2022-12-15T01:12:41.836Z,-4.50
2022-12-15T01:13:43.034Z,-4.50
2022-12-15T01:14:44.123Z,-4.49
2022-12-15T01:15:43.910Z,-4.50
2022-12-15T01:16:44.683Z,-4.51
2022-12-15T01:17:45.339Z,-4.53
2022-12-15T01:18:49.594Z,-4.54
2022-12-15T01:19:46.937Z,-4.56
2022-12-15T01:20:47.687Z,-4.58
2022-12-15T01:21:48.397Z,-4.60
2022-12-15T01:22:49.107Z,-4.57
2022-12-15T01:23:50.006Z,-4.57
2022-12-15T01:24:50.711Z,-4.60
2022-12-15T01:25:51.448Z,-4.57
2022-12-15T01:26:52.135Z,-4.58
2022-12-15T01:27:52.850Z,-4.54
2022-12-15T01:28:54.022Z,-4.53
2022-12-15T01:29:54.170Z,-4.50
2022-12-15T01:30:54.879Z,-4.50
2022-12-15T01:31:55.861Z,-4.51
2022-12-15T01:32:56.574Z,-4.53
2022-12-15T01:33:57.290Z,-4.54
2022-12-15T01:34:58.001Z,-4.54
2022-12-15T01:35:58.709Z,-4.56
2022-12-15T01:36:59.417Z,-4.57
2022-12-15T01:38:00.124Z,-4.58
2022-12-15T01:39:00.840Z,-4.61
2022-12-15T01:40:01.549Z,-4.63
2022-12-15T01:41:02.254Z,-4.61
2022-12-15T01:42:02.965Z,-4.60
2022-12-15T01:43:03.671Z,-4.60
2022-12-15T01:44:04.406Z,-4.58
2022-12-15T01:45:05.074Z,-4.60
2022-12-15T01:46:05.780Z,-4.60
2022-12-15T01:47:06.602Z,-4.58
2022-12-15T01:48:07.255Z,-4.60
2022-12-15T01:49:08.000Z,-4.60
2022-12-15T01:50:08.710Z,-4.60
2022-12-15T01:51:09.422Z,-4.61
2022-12-15T01:52:10.130Z,-4.63
2022-12-15T01:53:10.838Z,-4.67
2022-12-15T01:54:11.555Z,-4.63
2022-12-15T01:55:12.264Z,-4.65
2022-12-15T01:56:12.970Z,-4.63
2022-12-15T01:57:13.681Z,-4.67
2022-12-15T01:58:14.385Z,-4.65
2022-12-15T01:59:15.118Z,-4.63
2022-12-15T02:00:15.778Z,-4.65
2022-12-15T02:01:16.627Z,-4.67
2022-12-15T02:02:17.460Z,-4.69
2022-12-15T02:03:18.272Z,-4.71
2022-12-15T02:04:18.931Z,-4.72
2022-12-15T02:05:19.641Z,-4.75
2022-12-15T02:06:20.348Z,-4.77
2022-12-15T02:07:21.056Z,-4.77
2022-12-15T02:08:21.764Z,-4.77
2022-12-15T02:09:22.499Z,-4.69
2022-12-15T02:10:23.207Z,-4.63
2022-12-15T02:11:23.915Z,-4.63
2022-12-15T02:12:24.621Z,-4.60
2022-12-15T02:13:25.327Z,-4.60
2022-12-15T02:14:26.079Z,-4.60
2022-12-15T02:15:26.769Z,-4.58
2022-12-15T02:16:27.594Z,-4.60
2022-12-15T02:17:28.284Z,-4.61
2022-12-15T02:18:28.971Z,-4.61
2022-12-15T02:19:29.710Z,-4.61
2022-12-15T02:20:30.421Z,-4.60
2022-12-15T02:21:31.146Z,-4.60
2022-12-15T02:22:31.838Z,-4.61
2022-12-15T02:23:33.034Z,-4.63
2022-12-15T02:24:34.009Z,-4.63
2022-12-15T02:25:34.212Z,-4.63
2022-12-15T02:26:34.918Z,-4.61
2022-12-15T02:27:35.626Z,-4.63
2022-12-15T02:28:36.348Z,-4.61
2022-12-15T02:29:37.083Z,-4.61
2022-12-15T02:30:37.774Z,-4.63
2022-12-15T02:31:38.761Z,-4.63
2022-12-15T02:32:39.425Z,-4.60
2022-12-15T02:33:40.110Z,-4.58
2022-12-15T02:34:40.823Z,-4.60
2022-12-15T02:35:41.529Z,-4.58
2022-12-15T02:36:42.240Z,-4.57
2022-12-15T02:37:42.946Z,-4.58
2022-12-15T02:38:43.650Z,-4.57
2022-12-15T02:39:44.368Z,-4.56
2022-12-15T02:40:45.076Z,-4.54
2022-12-15T02:41:45.785Z,-4.53
2022-12-15T02:42:46.497Z,-4.50
2022-12-15T02:43:47.205Z,-4.51
2022-12-15T02:44:48.518Z,-4.50
2022-12-15T02:45:48.748Z,-4.50
2022-12-15T02:46:49.413Z,-4.49
2022-12-15T02:47:50.142Z,-4.47
2022-12-15T02:48:50.834Z,-4.46
2022-12-15T02:49:51.550Z,-4.49
2022-12-15T02:50:52.258Z,-4.50
2022-12-15T02:51:52.990Z,-4.51
2022-12-15T02:52:53.687Z,-4.54
2022-12-15T02:53:54.395Z,-4.53
2022-12-15T02:54:55.498Z,-4.53
2022-12-15T02:55:55.709Z,-4.56
2022-12-15T02:56:56.419Z,-4.54
2022-12-15T02:57:57.133Z,-4.56
2022-12-15T02:58:57.847Z,-4.54
2022-12-15T02:59:59.025Z,-4.54
2022-12-15T03:00:59.266Z,-4.51
2022-12-15T03:02:00.169Z,-4.47
2022-12-15T03:03:00.843Z,-4.46
2022-12-15T03:04:01.082Z,-4.40
2022-12-15T03:05:01.814Z,-4.39
2022-12-15T03:06:02.526Z,-4.40
2022-12-15T03:07:03.233Z,-4.39
2022-12-15T03:08:03.943Z,-4.39
2022-12-15T03:09:04.648Z,-4.39
2022-12-15T03:10:05.363Z,-4.39
2022-12-15T03:11:06.074Z,-4.38
2022-12-15T03:12:06.785Z,-4.36
2022-12-15T03:13:07.495Z,-4.35
2022-12-15T03:14:08.201Z,-4.36
2022-12-15T03:15:09.035Z,-4.35
2022-12-15T03:16:09.742Z,-4.33
2022-12-15T03:17:10.420Z,-4.32
2022-12-15T03:18:11.162Z,-4.32
2022-12-15T03:19:11.842Z,-4.33
2022-12-15T03:20:13.003Z,-4.33
2022-12-15T03:21:13.211Z,-4.35
2022-12-15T03:22:13.923Z,-4.32
2022-12-15T03:23:14.651Z,-4.30
2022-12-15T03:24:15.360Z,-4.33
2022-12-15T03:25:16.076Z,-4.35
2022-12-15T03:26:16.780Z,-4.33
2022-12-15T03:27:17.487Z,-4.35
2022-12-15T03:28:18.194Z,-4.35
2022-12-15T03:29:18.909Z,-4.33
2022-12-15T03:30:19.642Z,-4.32
2022-12-15T03:31:20.341Z,-4.29
2022-12-15T03:32:21.061Z,-4.28
2022-12-15T03:33:21.750Z,-4.28
2022-12-15T03:34:22.440Z,-4.25
2022-12-15T03:35:23.157Z,-4.29
2022-12-15T03:36:23.863Z,-4.28
2022-12-15T03:37:24.569Z,-4.28
2022-12-15T03:38:25.277Z,-4.30
2022-12-15T03:39:26.005Z,-4.29
2022-12-15T03:40:26.999Z,-4.30
2022-12-15T03:41:27.209Z,-4.32
2022-12-15T03:42:27.919Z,-4.32
2022-12-15T03:43:29.074Z,-4.28
2022-12-15T03:44:29.421Z,-4.29
2022-12-15T03:45:30.167Z,-4.30
2022-12-15T03:46:30.929Z,-4.30
2022-12-15T03:47:31.572Z,-4.29
2022-12-15T03:48:32.306Z,-4.29
2022-12-15T03:49:33.003Z,-4.29
2022-12-15T03:50:33.718Z,-4.29
2022-12-15T03:51:34.424Z,-4.28
2022-12-15T03:52:35.131Z,-4.24
2022-12-15T03:53:35.840Z,-4.24
2022-12-15T03:54:36.548Z,-4.24
2022-12-15T03:55:37.494Z,-4.22
2022-12-15T03:56:38.204Z,-4.21
2022-12-15T03:57:38.914Z,-4.20
2022-12-15T03:58:39.625Z,-4.22
2022-12-15T03:59:40.331Z,-4.21
2022-12-15T04:00:41.071Z,-4.21
2022-12-15T04:01:41.831Z,-4.20
2022-12-15T04:02:42.760Z,-4.21
2022-12-15T04:03:43.629Z,-4.24
2022-12-15T04:04:44.310Z,-4.22
2022-12-15T04:05:45.024Z,-4.21
2022-12-15T04:06:45.737Z,-4.22
2022-12-15T04:07:46.444Z,-4.22
2022-12-15T04:08:47.165Z,-4.21
2022-12-15T04:09:48.020Z,-4.20
2022-12-15T04:10:48.733Z,-4.22
2022-12-15T04:11:49.450Z,-4.22
2022-12-15T04:12:50.159Z,-4.24
2022-12-15T04:13:50.867Z,-4.24
2022-12-15T04:14:51.576Z,-4.22
2022-12-15T04:15:52.533Z,-4.25
2022-12-15T04:16:53.350Z,-4.21
2022-12-15T04:17:54.012Z,-4.18
2022-12-15T04:18:54.738Z,-4.20
2022-12-15T04:19:55.422Z,-4.21
2022-12-15T04:20:56.503Z,-4.18
2022-12-15T04:21:56.708Z,-4.18
2022-12-15T04:22:57.435Z,-4.20
2022-12-15T04:23:58.143Z,-4.22
2022-12-15T04:24:58.860Z,-4.20
2022-12-15T04:25:59.999Z,-4.21
2022-12-15T04:27:00.208Z,-4.21
2022-12-15T04:28:01.901Z,-4.15
2022-12-15T04:29:01.619Z,-4.15
2022-12-15T04:30:02.325Z,-4.17
2022-12-15T04:31:03.583Z,-4.18
2022-12-15T04:32:03.771Z,-4.15
2022-12-15T04:33:04.480Z,-4.12
2022-12-15T04:34:05.206Z,-4.10
2022-12-15T04:35:05.899Z,-4.07
2022-12-15T04:36:06.994Z,-4.04
2022-12-15T04:37:07.204Z,-4.04
2022-12-15T04:38:07.940Z,-4.04
2022-12-15T04:39:08.645Z,-4.04
2022-12-15T04:40:09.356Z,-4.03
2022-12-15T04:41:10.493Z,-4.06
2022-12-15T04:42:10.704Z,-4.04
2022-12-15T04:43:11.409Z,-4.04
2022-12-15T04:44:12.115Z,-4.04
2022-12-15T04:45:17.084Z,-4.06
2022-12-15T04:46:14.550Z,-4.07
2022-12-15T04:47:14.197Z,-4.07
2022-12-15T04:48:14.905Z,-4.10
2022-12-15T04:49:15.630Z,-4.11
2022-12-15T04:50:16.320Z,-4.12
2022-12-15T04:51:17.493Z,-4.11
2022-12-15T04:52:17.701Z,-4.12
2022-12-15T04:53:18.407Z,-4.12
2022-12-15T04:54:19.120Z,-4.12
2022-12-15T04:55:19.832Z,-4.11
2022-12-15T04:56:21.006Z,-4.07
2022-12-15T04:57:21.202Z,-4.07
2022-12-15T04:58:21.914Z,-4.12
2022-12-15T04:59:22.619Z,-4.15
2022-12-15T05:00:23.324Z,-4.17
2022-12-15T05:01:24.171Z,-4.18
2022-12-15T05:02:25.151Z,-4.18
2022-12-15T05:03:25.858Z,-4.17
2022-12-15T05:04:26.633Z,-4.18
2022-12-15T05:05:27.295Z,-4.20
2022-12-15T05:06:28.493Z,-4.21
2022-12-15T05:07:28.701Z,-4.24
2022-12-15T05:08:29.412Z,-4.24
2022-12-15T05:09:30.118Z,-4.25
2022-12-15T05:10:30.828Z,-4.25
2022-12-15T05:11:31.996Z,-4.24
2022-12-15T05:12:32.202Z,-4.20
2022-12-15T05:13:33.329Z,-4.17
2022-12-15T05:14:33.617Z,-4.15
2022-12-15T05:15:34.453Z,-4.15
2022-12-15T05:16:35.533Z,-4.15
2022-12-15T05:17:41.299Z,-4.17
2022-12-15T05:18:37.314Z,-4.15
2022-12-15T05:19:37.076Z,-4.18
2022-12-15T05:20:37.733Z,-4.17
2022-12-15T05:21:38.497Z,-4.17
2022-12-15T05:22:39.202Z,-4.17
2022-12-15T05:23:39.909Z,-4.18
2022-12-15T05:24:40.613Z,-4.17
2022-12-15T05:25:41.318Z,-4.18
2022-12-15T05:26:42.038Z,-4.18
2022-12-15T05:27:42.743Z,-4.20
2022-12-15T05:28:43.451Z,-4.17
2022-12-15T05:29:44.158Z,-4.20
2022-12-15T05:30:44.941Z,-4.17
2022-12-15T05:31:46.010Z,-4.20
2022-12-15T05:32:46.155Z,-4.20
2022-12-15T05:33:47.053Z,-4.21
2022-12-15T05:34:47.779Z,-4.21
2022-12-15T05:35:48.464Z,-4.18
2022-12-15T05:36:49.178Z,-4.14
2022-12-15T05:37:49.884Z,-4.14
2022-12-15T05:38:50.589Z,-4.15
2022-12-15T05:39:51.294Z,-4.14
2022-12-15T05:40:52.017Z,-4.10
2022-12-15T05:41:52.991Z,-4.10
2022-12-15T05:42:53.697Z,-4.10
2022-12-15T05:43:54.615Z,-4.07
2022-12-15T05:44:55.325Z,-4.10
2022-12-15T05:45:56.116Z,-4.10
2022-12-15T05:46:56.806Z,-4.12
2022-12-15T05:47:57.466Z,-4.11
2022-12-15T05:48:58.174Z,-4.07
2022-12-15T05:49:58.899Z,-4.07
2022-12-15T05:50:59.593Z,-4.11
2022-12-15T05:52:00.491Z,-4.10
2022-12-15T05:53:01.202Z,-4.06
2022-12-15T05:54:01.910Z,-4.06
2022-12-15T05:55:02.619Z,-4.06
2022-12-15T05:56:03.327Z,-4.11
2022-12-15T05:57:04.048Z,-4.14
2022-12-15T05:58:04.753Z,-4.14
2022-12-15T05:59:05.461Z,-4.18
2022-12-15T06:00:06.167Z,-4.15
2022-12-15T06:01:06.887Z,-4.18
2022-12-15T06:02:07.702Z,-4.17
2022-12-15T06:03:08.468Z,-4.18
2022-12-15T06:04:09.236Z,-4.14
2022-12-15T06:05:09.971Z,-4.17
2022-12-15T06:06:10.608Z,-4.17
2022-12-15T06:07:11.492Z,-4.15
2022-12-15T06:08:12.200Z,-4.15
2022-12-15T06:09:12.907Z,-4.17
2022-12-15T06:10:13.626Z,-4.15
2022-12-15T06:11:14.344Z,-4.17
2022-12-15T06:12:15.061Z,-4.17
2022-12-15T06:13:15.775Z,-4.18
2022-12-15T06:14:16.487Z,-4.18
2022-12-15T06:15:17.197Z,-4.21
2022-12-15T06:16:17.957Z,-4.22
2022-12-15T06:17:19.034Z,-4.24
2022-12-15T06:18:19.225Z,-4.24
2022-12-15T06:19:19.942Z,-4.24
2022-12-15T06:20:20.655Z,-4.25
2022-12-15T06:21:21.344Z,-4.24
2022-12-15T06:22:22.491Z,-4.29
2022-12-15T06:23:22.702Z,-4.32
2022-12-15T06:24:23.414Z,-4.32
2022-12-15T06:25:24.130Z,-4.33
2022-12-15T06:26:24.843Z,-4.35
2022-12-15T06:27:25.997Z,-4.38
2022-12-15T06:28:26.210Z,-4.35
2022-12-15T06:29:26.932Z,-4.36
2022-12-15T06:30:27.632Z,-4.38
2022-12-15T06:31:28.414Z,-4.39
2022-12-15T06:32:29.113Z,-4.40
2022-12-15T06:33:30.154Z,-4.40
2022-12-15T06:34:30.592Z,-4.39
2022-12-15T06:35:31.334Z,-4.40
2022-12-15T06:36:32.025Z,-4.40
2022-12-15T06:37:32.992Z,-4.39
2022-12-15T06:38:33.703Z,-4.39
2022-12-15T06:39:34.413Z,-4.38
2022-12-15T06:40:38.243Z,-4.38
2022-12-15T06:41:36.050Z,-4.33
2022-12-15T06:42:36.990Z,-4.32
2022-12-15T06:43:37.698Z,-4.32
2022-12-15T06:44:38.407Z,-4.30
2022-12-15T06:45:39.223Z,-4.30
2022-12-15T06:46:40.021Z,-4.33
2022-12-15T06:47:40.707Z,-4.32
2022-12-15T06:48:41.394Z,-4.33
2022-12-15T06:49:42.102Z,-4.33
2022-12-15T06:50:42.834Z,-4.33
2022-12-15T06:51:43.523Z,-4.33
2022-12-15T06:52:44.488Z,-4.33
2022-12-15T06:53:45.197Z,-4.33
2022-12-15T06:54:45.907Z,-4.32
2022-12-15T06:55:46.613Z,-4.29
2022-12-15T06:56:49.900Z,-4.28
2022-12-15T06:57:48.301Z,-4.28
2022-12-15T06:58:49.038Z,-4.29
2022-12-15T06:59:49.742Z,-4.32
2022-12-15T07:00:50.448Z,-4.30
2022-12-15T07:01:51.436Z,-4.28
2022-12-15T07:02:51.939Z,-4.25
2022-12-15T07:03:52.547Z,-4.24
2022-12-15T07:04:52.817Z,-4.24
2022-12-15T07:05:53.548Z,-4.25
2022-12-15T07:06:54.241Z,-4.24
2022-12-15T07:07:54.946Z,-4.22
2022-12-15T07:08:55.653Z,-4.21
2022-12-15T07:09:56.361Z,-4.20
2022-12-15T07:10:57.067Z,-4.18
2022-12-15T07:11:57.773Z,-4.22
2022-12-15T07:12:58.488Z,-4.24
2022-12-15T07:13:59.198Z,-4.24
2022-12-15T07:14:59.909Z,-4.24
2022-12-15T07:16:00.693Z,-4.24
2022-12-15T07:17:01.344Z,-4.22
2022-12-15T07:18:02.527Z,-4.24
2022-12-15T07:19:02.714Z,-4.21
2022-12-15T07:20:03.428Z,-4.20
2022-12-15T07:21:04.162Z,-4.18
2022-12-15T07:22:04.846Z,-4.22
2022-12-15T07:23:05.564Z,-4.22
2022-12-15T07:24:06.798Z,-4.24
2022-12-15T07:25:06.846Z,-4.20
2022-12-15T07:26:11.423Z,-4.17
2022-12-15T07:27:08.485Z,-4.15
2022-12-15T07:28:09.201Z,-4.12
2022-12-15T07:29:09.909Z,-4.15
2022-12-15T07:30:10.637Z,-4.12
2022-12-15T07:31:11.486Z,-4.12
2022-12-15T07:32:12.184Z,-4.11
2022-12-15T07:33:12.916Z,-4.11
2022-12-15T07:34:13.558Z,-4.11
2022-12-15T07:35:14.265Z,-4.12
2022-12-15T07:36:15.049Z,-4.12
2022-12-15T07:37:15.685Z,-4.10
2022-12-15T07:38:16.401Z,-4.10
2022-12-15T07:39:17.109Z,-4.10
2022-12-15T07:40:17.815Z,-4.10
2022-12-15T07:41:18.541Z,-4.06
2022-12-15T07:42:19.237Z,-4.04
2022-12-15T07:43:19.955Z,-4.03
2022-12-15T07:44:20.661Z,-4.03
2022-12-15T07:45:21.368Z,-4.03
2022-12-15T07:46:22.177Z,-4.04
2022-12-15T07:47:22.823Z,-4.04
2022-12-15T07:48:23.559Z,-4.04
2022-12-15T07:49:24.266Z,-4.03
2022-12-15T07:50:24.967Z,-4.01
2022-12-15T07:51:25.792Z,-4.01
2022-12-15T07:52:26.416Z,-4.00
2022-12-15T07:53:27.650Z,-3.96
2022-12-15T07:54:27.907Z,-3.94
2022-12-15T07:55:57.117Z,-3.90
2022-12-15T07:56:34.433Z,-3.86
2022-12-15T07:57:30.829Z,-3.83
2022-12-15T07:58:30.999Z,-3.82
2022-12-15T07:59:31.284Z,-3.78
2022-12-15T08:00:31.993Z,-3.75
2022-12-15T08:01:32.863Z,-3.75
2022-12-15T08:02:33.807Z,-3.67
2022-12-15T08:03:35.735Z,-3.63
2022-12-15T08:04:35.247Z,-3.60
2022-12-15T08:05:35.954Z,-3.59
2022-12-15T08:06:36.685Z,-3.56
2022-12-15T08:07:37.372Z,-3.54
2022-12-15T08:08:38.512Z,-3.53
2022-12-15T08:09:38.700Z,-3.52
2022-12-15T08:10:39.449Z,-3.49
2022-12-15T08:11:40.163Z,-3.52
2022-12-15T08:12:40.874Z,-3.52
2022-12-15T08:14:43.201Z,-3.45
2022-12-15T08:15:42.921Z,-3.45
2022-12-15T08:16:43.703Z,-3.43
2022-12-15T08:17:44.410Z,-3.36
2022-12-15T08:18:45.158Z,-3.30
2022-12-15T08:19:45.843Z,-3.27
2022-12-15T08:20:46.551Z,-3.27
2022-12-15T08:21:47.552Z,-3.23
2022-12-15T08:22:48.249Z,-3.20
2022-12-15T08:23:48.995Z,-3.14
2022-12-15T08:24:49.702Z,-3.09
2022-12-15T08:25:50.414Z,-3.07
2022-12-15T08:26:51.123Z,-3.10
2022-12-15T08:27:51.829Z,-3.15
2022-12-15T08:28:52.551Z,-3.17
2022-12-15T08:29:53.295Z,-3.15
2022-12-15T08:30:53.969Z,-3.10
2022-12-15T08:31:54.787Z,-3.10
2022-12-15T08:32:55.484Z,-3.06
2022-12-15T08:33:56.216Z,-2.97
2022-12-15T08:34:56.875Z,-2.88
2022-12-15T08:35:57.601Z,-2.82
2022-12-15T08:36:58.322Z,-2.79
2022-12-15T08:38:05.096Z,-2.79
2022-12-15T08:39:00.989Z,-2.77
2022-12-15T08:40:00.220Z,-2.71
2022-12-15T08:41:00.913Z,-2.64
2022-12-15T08:42:01.633Z,-2.61
2022-12-15T08:43:02.344Z,-2.53
2022-12-15T08:44:03.493Z,-2.46
2022-12-15T08:45:03.710Z,-2.39
2022-12-15T08:46:04.411Z,-2.39
2022-12-15T08:47:05.124Z,-2.32
2022-12-15T08:48:05.832Z,-2.26
2022-12-15T08:49:07.006Z,-2.23
2022-12-15T08:50:07.167Z,-2.16
2022-12-15T08:51:07.878Z,-2.16
2022-12-15T08:52:08.613Z,-2.23
2022-12-15T08:53:30.307Z,-2.23
2022-12-15T08:54:11.490Z,-2.12
2022-12-15T08:55:10.701Z,-1.98
2022-12-15T08:56:11.424Z,-1.95
2022-12-15T08:57:12.138Z,-1.87
2022-12-15T08:58:12.847Z,-1.74
2022-12-15T08:59:13.561Z,-1.66
2022-12-15T09:00:14.275Z,-1.62
2022-12-15T09:01:22.174Z,-1.52
2022-12-15T09:02:16.767Z,-1.51
2022-12-15T09:03:16.467Z,-1.52
2022-12-15T09:04:17.319Z,-1.52
2022-12-15T09:05:18.104Z,-1.66
2022-12-15T09:06:18.826Z,-1.67
2022-12-15T09:07:19.554Z,-1.69
2022-12-15T09:08:20.236Z,-1.74
2022-12-15T09:09:20.997Z,-1.77
2022-12-15T09:10:21.703Z,-1.80
2022-12-15T09:11:22.417Z,-1.76
2022-12-15T09:12:23.130Z,-1.69
2022-12-15T09:13:23.837Z,-1.62
2022-12-15T09:14:29.146Z,-1.56
2022-12-15T09:15:45.449Z,-1.58
2022-12-15T09:16:27.023Z,-1.49
2022-12-15T09:17:26.771Z,-1.48
2022-12-15T09:18:27.467Z,-1.46
2022-12-15T09:19:28.545Z,-1.49
2022-12-15T09:20:28.758Z,-1.52
2022-12-15T09:21:29.458Z,-1.49
2022-12-15T09:22:30.207Z,-1.40
2022-12-15T09:23:31.293Z,-1.31
2022-12-15T09:24:35.021Z,-1.28
2022-12-15T09:25:32.204Z,-1.31
2022-12-15T09:26:32.924Z,-1.25
2022-12-15T09:27:33.646Z,-1.22
2022-12-15T09:28:34.385Z,-1.09
2022-12-15T09:29:35.107Z,-0.92
2022-12-15T09:30:35.850Z,-0.76
2022-12-15T09:31:36.532Z,-0.64
2022-12-15T09:32:37.243Z,-0.69
2022-12-15T09:33:37.967Z,-0.70
2022-12-15T09:34:39.010Z,-0.67
2022-12-15T09:35:39.212Z,-0.52
2022-12-15T09:36:39.945Z,-0.39
2022-12-15T09:37:40.730Z,-0.39
2022-12-15T09:38:41.365Z,-0.49
2022-12-15T09:39:42.489Z,-0.47
2022-12-15T09:40:42.696Z,-0.62
2022-12-15T09:41:43.402Z,-0.60
2022-12-15T09:42:44.114Z,-0.42
2022-12-15T09:43:47.327Z,-0.23
2022-12-15T09:44:45.528Z,-0.11
2022-12-15T09:45:46.359Z,-0.18
2022-12-15T09:46:49.886Z,-0.14
2022-12-15T09:47:47.770Z,-0.10
2022-12-15T09:48:48.482Z,-0.11
2022-12-15T09:49:49.507Z,-0.04
2022-12-15T09:50:49.715Z,-0.04
2022-12-15T09:51:50.423Z,0.03
2022-12-15T09:52:51.154Z,0.02
2022-12-15T09:53:55.039Z,0.10
2022-12-15T09:54:52.520Z,0.04
2022-12-15T09:55:53.187Z,0.10
2022-12-15T09:56:53.908Z,0.17
2022-12-15T09:57:54.625Z,0.23
2022-12-15T09:58:55.352Z,0.28
2022-12-15T09:59:56.550Z,0.38
2022-12-15T10:00:56.735Z,0.51
2022-12-15T10:01:57.485Z,0.60
2022-12-15T10:02:58.290Z,0.65
2022-12-15T10:03:59.137Z,0.68
2022-12-15T10:04:59.885Z,0.70
2022-12-15T10:06:18.434Z,0.86
2022-12-15T10:07:02.179Z,0.96
2022-12-15T10:08:01.911Z,0.93
2022-12-15T10:09:02.595Z,0.88
2022-12-15T10:10:03.500Z,0.90
2022-12-15T10:11:04.211Z,0.93
2022-12-15T10:12:04.934Z,0.98
2022-12-15T10:13:05.711Z,0.96
2022-12-15T10:14:06.461Z,0.86
2022-12-15T10:15:07.492Z,0.86
2022-12-15T10:16:07.755Z,0.79
2022-12-15T10:17:08.414Z,0.73
2022-12-15T10:18:09.122Z,0.88
2022-12-15T10:19:09.832Z,0.96
2022-12-15T10:20:11.025Z,1.02
2022-12-15T10:21:11.191Z,1.08
2022-12-15T10:22:11.899Z,1.15
2022-12-15T10:23:12.671Z,1.34
2022-12-15T10:24:13.354Z,1.23
2022-12-15T10:25:14.493Z,1.29
2022-12-15T10:26:14.698Z,1.27
2022-12-15T10:27:15.416Z,1.15
2022-12-15T10:28:16.138Z,1.11
2022-12-15T10:29:16.835Z,0.94
2022-12-15T10:30:18.054Z,0.96
2022-12-15T10:31:18.374Z,1.09
2022-12-15T10:32:19.065Z,1.30
2022-12-15T10:33:19.780Z,1.26
2022-12-15T10:34:20.590Z,1.37
2022-12-15T10:35:21.269Z,1.51
2022-12-15T10:36:21.932Z,1.60
2022-12-15T10:37:22.645Z,1.63
2022-12-15T10:38:23.383Z,1.69
2022-12-15T10:39:24.086Z,1.76
2022-12-15T10:40:24.992Z,1.51
2022-12-15T10:41:25.702Z,1.45
2022-12-15T10:42:26.431Z,1.42
2022-12-15T10:43:27.365Z,1.42
2022-12-15T10:44:32.216Z,1.50
2022-12-15T10:45:28.580Z,1.60
2022-12-15T10:46:29.375Z,1.79
2022-12-15T10:47:30.080Z,1.98
2022-12-15T10:48:30.791Z,1.88
2022-12-15T10:49:31.498Z,1.99
2022-12-15T10:50:32.239Z,2.18
2022-12-15T10:51:32.907Z,2.25
2022-12-15T10:52:33.639Z,2.00
2022-12-15T10:53:34.789Z,1.98
2022-12-15T10:54:35.074Z,2.09
2022-12-15T10:55:35.791Z,1.91
2022-12-15T10:56:36.506Z,1.76
2022-12-15T10:57:37.207Z,1.72
2022-12-15T10:58:37.909Z,1.84
2022-12-15T10:59:38.623Z,2.00
2022-12-15T11:00:39.348Z,1.90
2022-12-15T11:01:40.283Z,1.86
2022-12-15T11:02:41.265Z,1.84
2022-12-15T11:03:42.041Z,1.84
2022-12-15T11:04:42.607Z,1.98
2022-12-15T11:05:43.310Z,2.06
2022-12-15T11:06:43.999Z,2.17
2022-12-15T11:07:44.876Z,2.28
2022-12-15T11:08:45.575Z,2.34
2022-12-15T11:09:46.245Z,2.36
2022-12-15T11:10:46.990Z,2.23
2022-12-15T11:11:47.636Z,2.35
2022-12-15T11:12:48.826Z,2.52
2022-12-15T11:13:48.865Z,2.71
2022-12-15T11:14:49.488Z,2.95
2022-12-15T11:15:50.741Z,3.17
2022-12-15T11:16:51.192Z,3.35
2022-12-15T11:17:51.896Z,3.50
2022-12-15T11:18:52.614Z,3.65
2022-12-15T11:19:59.830Z,3.72
2022-12-15T11:20:55.035Z,3.87
2022-12-15T11:21:54.708Z,3.97
2022-12-15T11:22:55.422Z,4.02
2022-12-15T11:23:56.141Z,4.00
2022-12-15T11:24:56.836Z,4.09
2022-12-15T11:25:59.206Z,4.12
2022-12-15T11:26:58.388Z,4.09
2022-12-15T11:27:59.105Z,4.16
2022-12-15T11:28:59.819Z,4.23
2022-12-15T11:30:00.554Z,4.30
2022-12-15T11:31:01.303Z,4.30
2022-12-15T11:32:07.032Z,4.45
2022-12-15T11:33:03.612Z,4.54
2022-12-15T11:34:03.333Z,4.63
2022-12-15T11:35:04.044Z,4.67
2022-12-15T11:36:05.013Z,4.77
2022-12-15T11:37:05.711Z,4.86
2022-12-15T11:38:06.421Z,4.94
2022-12-15T11:39:07.195Z,4.86
2022-12-15T11:40:07.930Z,4.86
2022-12-15T11:41:08.646Z,4.86
2022-12-15T11:42:09.347Z,4.78
2022-12-15T11:43:10.057Z,4.45
2022-12-15T11:44:10.955Z,4.32
2022-12-15T11:45:11.806Z,4.33
2022-12-15T11:46:13.143Z,4.32
2022-12-15T11:47:13.338Z,4.37
2022-12-15T11:48:14.044Z,4.36
2022-12-15T11:49:14.755Z,4.27
2022-12-15T11:50:15.480Z,4.14
2022-12-15T11:51:16.571Z,4.06
2022-12-15T11:52:16.699Z,3.96
2022-12-15T11:53:17.467Z,4.04
2022-12-15T11:54:18.213Z,4.14
2022-12-15T11:55:20.831Z,4.27
2022-12-15T11:56:20.505Z,4.40
2022-12-15T11:57:20.244Z,4.48
2022-12-15T11:58:20.937Z,4.54
2022-12-15T11:59:21.649Z,4.62
2022-12-15T12:00:22.364Z,4.73
2022-12-15T12:01:23.536Z,4.80
2022-12-15T12:02:23.870Z,4.62
2022-12-15T12:03:24.652Z,4.51
2022-12-15T12:04:25.292Z,4.55
2022-12-15T12:05:26.084Z,4.66
2022-12-15T12:06:27.015Z,4.70
2022-12-15T12:07:27.750Z,4.72
2022-12-15T12:08:28.985Z,4.60
2022-12-15T12:09:29.415Z,4.66
2022-12-15T12:10:30.113Z,4.65
2022-12-15T12:11:31.042Z,4.65
2022-12-15T12:12:31.707Z,4.63
2022-12-15T12:13:32.574Z,4.32
2022-12-15T12:14:33.283Z,3.98
2022-12-15T12:15:33.992Z,3.84
2022-12-15T12:16:35.584Z,3.94
2022-12-15T12:17:35.250Z,4.08
2022-12-15T12:18:36.299Z,4.12
2022-12-15T12:19:36.630Z,4.02
2022-12-15T12:20:37.356Z,3.70
2022-12-15T12:21:38.523Z,3.54
2022-12-15T12:22:38.701Z,3.54
2022-12-15T12:23:39.391Z,3.47
2022-12-15T12:24:41.000Z,3.48
2022-12-15T12:25:40.764Z,3.42
2022-12-15T12:26:43.134Z,3.35
2022-12-15T12:27:42.307Z,3.32
2022-12-15T12:28:43.018Z,3.32
2022-12-15T12:29:43.734Z,3.48
2022-12-15T12:30:44.492Z,3.45
2022-12-15T12:31:44.997Z,3.33
2022-12-15T12:32:45.490Z,3.42
2022-12-15T12:33:46.218Z,3.57
2022-12-15T12:34:46.813Z,3.70
2022-12-15T12:35:47.331Z,3.84
2022-12-15T12:36:49.609Z,3.97
2022-12-15T12:37:48.891Z,4.05
2022-12-15T12:38:50.901Z,4.16
2022-12-15T12:39:50.604Z,4.32
2022-12-15T12:40:50.785Z,4.44
2022-12-15T12:41:52.098Z,4.54
2022-12-15T12:42:52.258Z,4.59
2022-12-15T12:43:52.970Z,4.66
2022-12-15T12:44:53.690Z,4.62
2022-12-15T12:45:54.405Z,4.66
2022-12-15T12:46:55.155Z,4.72
2022-12-15T12:47:55.900Z,4.58
2022-12-15T12:48:56.608Z,4.45
2022-12-15T12:49:57.314Z,4.44
2022-12-15T12:50:58.035Z,4.54
2022-12-15T12:51:59.020Z,4.59
2022-12-15T12:52:59.271Z,4.59
2022-12-15T12:54:00.039Z,4.69
2022-12-15T12:55:00.752Z,4.77
2022-12-15T12:56:01.415Z,4.78
2022-12-15T12:57:02.508Z,4.86
2022-12-15T12:58:02.720Z,4.91
2022-12-15T12:59:03.446Z,4.96
2022-12-15T13:00:04.155Z,4.97
2022-12-15T13:01:05.029Z,5.04
2022-12-15T13:02:06.095Z,4.86
2022-12-15T13:03:06.308Z,4.52
2022-12-15T13:04:07.032Z,4.14
2022-12-15T13:05:07.711Z,4.04
2022-12-15T13:06:08.430Z,4.02
2022-12-15T13:07:12.891Z,3.93
2022-12-15T13:08:09.730Z,3.96
2022-12-15T13:09:10.452Z,4.00
2022-12-15T13:10:11.171Z,3.87